createdAt,value
2022-10-18T00:01:38.866Z,101007.25
2022-10-18T00:04:09.470Z,101009.84
2022-10-18T00:06:41.149Z,100999.47
2022-10-18T00:09:14.579Z,101008.12
2022-10-18T00:11:42.872Z,101011.62
2022-10-18T00:14:16.328Z,101015.09
2022-10-18T00:16:45.175Z,101006.37
2022-10-18T00:19:15.848Z,101006.41
2022-10-18T00:24:27.326Z,100994.25
2022-10-18T00:26:58.845Z,100987.28
2022-10-18T00:29:27.328Z,100989.03
2022-10-18T00:32:00.823Z,100996.00
2022-10-18T00:34:29.707Z,100995.12
2022-10-18T00:37:04.157Z,100982.97
2022-10-18T00:39:34.046Z,100983.84
2022-10-18T00:42:03.748Z,100991.66
2022-10-18T00:44:50.723Z,100982.97
2022-10-18T00:47:21.639Z,100993.41
2022-10-18T00:49:55.740Z,100989.03
2022-10-18T00:52:30.682Z,100987.25
2022-10-18T00:55:00.410Z,100989.00
2022-10-18T00:57:29.487Z,100983.81
2022-10-18T00:59:57.754Z,100981.22
2022-10-18T01:02:28.589Z,100972.56
2022-10-18T01:05:00.247Z,100973.44
2022-10-18T01:07:34.591Z,100969.09
2022-10-18T01:10:11.047Z,100968.22
2022-10-18T01:12:43.704Z,100967.38
2022-10-18T01:15:14.531Z,100963.03
2022-10-18T01:17:45.994Z,100961.28
2022-10-18T01:20:47.308Z,100954.34
2022-10-18T01:23:19.423Z,100953.47
2022-10-18T01:25:53.613Z,100951.75
2022-10-18T01:28:33.112Z,100956.94
2022-10-18T01:31:08.752Z,100952.63
2022-10-18T01:33:38.657Z,100943.06
2022-10-18T01:36:11.307Z,100943.94
2022-10-18T01:38:39.568Z,100943.94
2022-10-18T01:41:13.097Z,100941.34
2022-10-18T01:43:44.716Z,100938.72
2022-10-18T01:46:21.423Z,100942.19
2022-10-18T01:48:50.103Z,100927.47
2022-10-18T01:51:19.878Z,100931.78
2022-10-18T01:53:48.925Z,100928.31
2022-10-18T01:56:28.609Z,100926.59
2022-10-18T01:59:21.453Z,100920.53
2022-10-18T02:01:54.878Z,100918.78
2022-10-18T02:04:31.176Z,100915.31
2022-10-18T02:07:07.615Z,100913.56
2022-10-18T02:09:39.650Z,100915.31
2022-10-18T02:12:09.308Z,100907.50
2022-10-18T02:14:38.165Z,100903.16
2022-10-18T02:17:08.954Z,100898.00
2022-10-18T02:19:38.650Z,100910.12
2022-10-18T02:22:09.164Z,100903.16
2022-10-18T02:24:38.660Z,100907.53
2022-10-18T02:27:08.417Z,100907.50
2022-10-18T02:29:36.680Z,100910.12
2022-10-18T02:32:11.290Z,100913.59
2022-10-18T02:34:42.186Z,100912.72
2022-10-18T02:37:13.456Z,100913.59
2022-10-18T02:39:43.574Z,100914.41
2022-10-18T02:42:14.338Z,100917.84
2022-10-18T02:44:42.932Z,100917.03
2022-10-18T02:47:15.696Z,100914.47
2022-10-18T02:49:47.561Z,100911.84
2022-10-18T02:52:17.536Z,100918.69
2022-10-18T02:54:45.823Z,100911.84
2022-10-18T02:57:14.341Z,100913.53
2022-10-18T02:59:46.650Z,100905.78
2022-10-18T03:02:19.001Z,100911.81
2022-10-18T03:04:49.517Z,100905.72
2022-10-18T03:07:19.855Z,100917.84
2022-10-18T03:09:49.017Z,100908.34
2022-10-18T03:12:17.579Z,100908.31
2022-10-18T03:14:48.607Z,100918.69
2022-10-18T03:17:31.799Z,100922.16
2022-10-18T03:20:06.969Z,100916.94
2022-10-18T03:22:37.081Z,100925.59
2022-10-18T03:25:06.513Z,100924.69
2022-10-18T03:27:34.848Z,100929.94
2022-10-18T03:30:06.026Z,100928.13
2022-10-18T03:32:35.748Z,100925.56
2022-10-18T03:35:08.867Z,100920.34
2022-10-18T03:37:38.823Z,100922.06
2022-10-18T03:40:14.482Z,100926.34
2022-10-18T03:42:42.757Z,100925.53
2022-10-18T03:45:14.684Z,100923.84
2022-10-18T03:47:43.145Z,100930.75
2022-10-18T03:50:15.241Z,100938.50
2022-10-18T03:52:44.859Z,100931.66
2022-10-18T03:55:14.982Z,100928.13
2022-10-18T03:57:43.644Z,100931.59
2022-10-18T04:00:15.479Z,100931.59
2022-10-18T04:02:44.030Z,100934.88
2022-10-18T04:05:24.351Z,100935.09
2022-10-18T04:07:55.124Z,100934.12
2022-10-18T04:10:24.936Z,100935.91
2022-10-18T04:12:53.478Z,100932.44
2022-10-18T04:15:22.672Z,100934.06
2022-10-18T04:17:51.280Z,100924.59
2022-10-18T04:20:29.299Z,100927.12
2022-10-18T04:23:06.619Z,100928.13
2022-10-18T04:25:35.826Z,100930.59
2022-10-18T04:28:07.871Z,100923.72
2022-10-18T04:30:36.716Z,100929.78
2022-10-18T04:33:06.930Z,100917.72
2022-10-18T04:35:35.801Z,100921.84
2022-10-18T04:38:10.813Z,100921.09
2022-10-18T04:40:39.714Z,100918.53
2022-10-18T04:43:11.150Z,100919.31
2022-10-18T04:45:40.047Z,100912.44
2022-10-18T04:48:12.192Z,100912.47
2022-10-18T04:50:41.069Z,100902.13
2022-10-18T04:53:17.328Z,100903.81
2022-10-18T04:55:46.965Z,100902.94
2022-10-18T05:00:49.013Z,100899.50
2022-10-18T05:03:18.350Z,100898.59
2022-10-18T05:06:03.436Z,100893.47
2022-10-18T05:08:37.772Z,100889.16
2022-10-18T05:11:07.829Z,100889.16
2022-10-18T05:13:47.278Z,100888.28
2022-10-18T05:16:27.392Z,100896.06
2022-10-18T05:18:56.592Z,100890.03
2022-10-18T05:21:27.907Z,100896.06
2022-10-18T05:23:58.214Z,100903.00
2022-10-18T05:26:26.871Z,100901.28
2022-10-18T05:28:55.578Z,100901.25
2022-10-18T05:31:28.905Z,100895.19
2022-10-18T05:33:57.857Z,100899.50
2022-10-18T05:36:27.082Z,100896.03
2022-10-18T05:39:00.884Z,100897.75
2022-10-18T05:41:40.844Z,100900.34
2022-10-18T05:44:16.030Z,100901.25
2022-10-18T05:46:44.294Z,100899.53
2022-10-18T05:49:16.278Z,100898.72
2022-10-18T05:51:44.572Z,100897.84
2022-10-18T05:54:14.485Z,100903.00
2022-10-18T05:56:46.334Z,100900.44
2022-10-18T05:59:15.414Z,100904.78
2022-10-18T06:01:44.012Z,100902.19
2022-10-18T06:04:13.154Z,100906.50
2022-10-18T06:06:42.170Z,100902.19
2022-10-18T06:09:10.845Z,100902.22
2022-10-18T06:11:42.468Z,100901.31
2022-10-18T06:14:13.044Z,100903.97
2022-10-18T06:16:42.519Z,100903.94
2022-10-18T06:19:12.124Z,100908.28
2022-10-18T06:21:44.365Z,100905.72
2022-10-18T06:24:12.896Z,100905.72
2022-10-18T06:26:45.677Z,100912.66
2022-10-18T06:29:16.015Z,100913.59
2022-10-18T06:31:46.568Z,100915.34
2022-10-18T06:34:15.432Z,100916.19
2022-10-18T06:36:44.496Z,100906.66
2022-10-18T06:39:13.695Z,100910.12
2022-10-18T06:41:48.992Z,100910.12
2022-10-18T06:44:21.772Z,100912.72
2022-10-18T06:46:50.541Z,100918.75
2022-10-18T06:49:19.439Z,100918.78
2022-10-18T06:51:48.710Z,100918.75
2022-10-18T06:54:19.087Z,100913.53
2022-10-18T06:56:48.974Z,100921.34
2022-10-18T06:59:21.890Z,100923.88
2022-10-18T07:01:50.971Z,100924.75
2022-10-18T07:04:22.865Z,100934.31
2022-10-18T07:06:56.267Z,100931.63
2022-10-18T07:09:25.138Z,100929.88
2022-10-18T07:11:53.774Z,100931.56
2022-10-18T07:14:28.773Z,100923.72
2022-10-18T07:16:59.864Z,100929.78
2022-10-18T07:19:28.463Z,100928.84
2022-10-18T07:21:59.768Z,100921.03
2022-10-18T07:24:29.018Z,100918.34
2022-10-18T07:27:01.345Z,100913.09
2022-10-18T07:29:32.262Z,100914.00
2022-10-18T07:32:03.376Z,100912.03
2022-10-18T07:34:32.209Z,100906.06
2022-10-18T07:37:04.053Z,100907.75
2022-10-18T07:39:36.210Z,100897.09
2022-10-18T07:42:05.183Z,100901.37
2022-10-18T07:44:35.086Z,100908.31
2022-10-18T07:47:04.072Z,100909.25
2022-10-18T07:49:33.400Z,100908.25
2022-10-18T07:52:14.358Z,100909.13
2022-10-18T07:54:51.242Z,100913.31
2022-10-18T07:57:20.117Z,100912.31
2022-10-18T07:59:56.887Z,100911.53
2022-10-18T08:02:28.255Z,100906.91
2022-10-18T08:04:59.828Z,100901.72
2022-10-18T08:07:35.553Z,100893.09
2022-10-18T08:10:04.466Z,100896.41
2022-10-18T08:12:37.319Z,100892.94
2022-10-18T08:15:07.831Z,100885.16
2022-10-18T08:17:39.225Z,100884.19
2022-10-18T08:20:12.078Z,100882.34
2022-10-18T08:22:59.755Z,100873.81
2022-10-18T08:25:29.916Z,100875.91
2022-10-18T08:28:01.577Z,100875.25
2022-10-18T08:30:32.658Z,100873.38
2022-10-18T08:33:03.520Z,100860.00
2022-10-18T08:35:32.729Z,100866.81
2022-10-18T08:38:04.398Z,100867.84
2022-10-18T08:40:34.766Z,100863.16
2022-10-18T08:43:12.700Z,100857.00
2022-10-18T08:45:44.642Z,100853.75
2022-10-18T08:48:19.565Z,100851.75
2022-10-18T08:50:54.936Z,100851.09
2022-10-18T08:53:28.832Z,100851.66
2022-10-18T08:56:02.146Z,100844.41
2022-10-18T08:58:37.107Z,100842.72
2022-10-18T09:01:12.570Z,100831.19
2022-10-18T09:04:12.893Z,100834.28
2022-10-18T09:06:46.077Z,100837.09
2022-10-18T09:09:25.095Z,100826.31
2022-10-18T09:12:01.025Z,100818.38
2022-10-18T09:14:40.316Z,100821.81
2022-10-18T09:17:15.883Z,100825.66
2022-10-18T09:19:57.275Z,100826.78
2022-10-18T09:22:30.039Z,100823.06
2022-10-18T09:25:01.677Z,100815.12
2022-10-18T09:27:34.782Z,100821.72
2022-10-18T09:30:05.151Z,100818.19
2022-10-18T09:32:42.906Z,100814.44
2022-10-18T09:35:21.219Z,100809.38
2022-10-18T09:37:49.749Z,100803.28
2022-10-18T09:40:19.349Z,100799.47
2022-10-18T09:42:52.407Z,100798.44
2022-10-18T09:45:23.640Z,100796.28
2022-10-18T09:47:59.898Z,100793.53
2022-10-18T09:50:32.859Z,100788.50
2022-10-18T09:53:06.683Z,100788.91
2022-10-18T09:55:37.198Z,100782.84
2022-10-18T10:00:36.440Z,100783.81
2022-10-18T10:03:11.276Z,100779.87
2022-10-18T10:05:40.221Z,100777.62
2022-10-18T10:08:09.255Z,100777.62
2022-10-18T10:10:39.888Z,100771.19
2022-10-18T10:13:12.499Z,100764.88
2022-10-18T10:15:42.584Z,100757.25
2022-10-18T10:18:20.474Z,100755.72
2022-10-18T10:20:51.687Z,100755.03
2022-10-18T10:23:21.522Z,100752.03
2022-10-18T10:25:58.618Z,100746.44
2022-10-18T10:28:40.696Z,100741.09
2022-10-18T10:31:20.368Z,100740.97
2022-10-18T10:33:50.284Z,100739.41
2022-10-18T10:36:20.088Z,100737.31
2022-10-18T10:38:48.834Z,100733.97
2022-10-18T10:41:23.872Z,100734.59
2022-10-18T10:43:52.810Z,100723.59
2022-10-18T10:46:23.258Z,100729.44
2022-10-18T10:49:00.614Z,100717.72
2022-10-18T10:51:53.779Z,100709.53
2022-10-18T10:54:35.937Z,100708.44
2022-10-18T10:57:05.405Z,100705.66
2022-10-18T11:02:21.990Z,100702.13
2022-10-18T11:04:52.633Z,100692.50
2022-10-18T11:07:25.133Z,100696.69
2022-10-18T11:09:58.901Z,100691.06
2022-10-18T11:12:36.457Z,100689.31
2022-10-18T11:15:12.183Z,100679.09
2022-10-18T11:17:42.564Z,100684.81
2022-10-18T11:20:18.079Z,100679.97
2022-10-18T11:22:50.415Z,100675.84
2022-10-18T11:25:21.499Z,100670.38
2022-10-18T11:27:54.552Z,100668.78
2022-10-18T11:30:38.726Z,100667.06
2022-10-18T11:33:09.838Z,100662.66
2022-10-18T11:35:42.955Z,100664.81
2022-10-18T11:38:15.786Z,100654.22
2022-10-18T11:40:47.382Z,100656.44
2022-10-18T11:43:20.879Z,100653.69
2022-10-18T11:45:52.818Z,100652.47
2022-10-18T11:48:48.165Z,100638.69
2022-10-18T11:51:34.176Z,100630.37
2022-10-18T11:54:20.938Z,100630.50
2022-10-18T11:56:51.978Z,100635.56
2022-10-18T11:59:26.037Z,100626.22
2022-10-18T12:01:55.533Z,100626.03
2022-10-18T12:04:25.675Z,100617.28
2022-10-18T12:06:56.240Z,100615.16
2022-10-18T12:09:28.122Z,100609.09
2022-10-18T12:11:57.301Z,100601.66
2022-10-18T12:14:32.025Z,100598.59
2022-10-18T12:17:35.742Z,100592.69
2022-10-18T12:19:56.203Z,100596.25
2022-10-18T12:22:27.209Z,100587.56
2022-10-18T12:24:58.063Z,100583.75
2022-10-18T12:27:28.719Z,100580.84
2022-10-18T12:29:59.072Z,100571.88
2022-10-18T12:32:28.848Z,100573.34
2022-10-18T12:35:00.751Z,100571.56
2022-10-18T12:37:39.737Z,100564.62
2022-10-18T12:40:13.489Z,100564.88
2022-10-18T12:42:53.500Z,100561.19
2022-10-18T12:45:26.674Z,100555.87
2022-10-18T12:47:55.546Z,100554.91
2022-10-18T12:50:26.890Z,100552.91
2022-10-18T12:53:10.976Z,100553.47
2022-10-18T12:55:40.126Z,100548.03
2022-10-18T13:00:56.526Z,100530.81
2022-10-18T13:03:43.275Z,100524.34
2022-10-18T13:06:13.748Z,100528.97
2022-10-18T13:08:48.577Z,100520.09
2022-10-18T13:11:32.853Z,100518.13
2022-10-18T13:14:14.302Z,100520.66
2022-10-18T13:16:43.760Z,100518.22
2022-10-18T13:19:17.541Z,100512.38
2022-10-18T13:21:48.149Z,100512.28
2022-10-18T13:24:28.665Z,100518.13
2022-10-18T13:27:18.033Z,100519.53
2022-10-18T13:30:01.067Z,100508.00
2022-10-18T13:32:34.053Z,100517.19
2022-10-18T13:35:03.164Z,100510.44
2022-10-18T13:37:34.915Z,100514.13
2022-10-18T13:40:23.033Z,100515.41
2022-10-18T13:42:51.331Z,100511.31
2022-10-18T13:45:45.244Z,100500.19
2022-10-18T13:48:32.509Z,100495.75
2022-10-18T13:51:05.758Z,100493.41
2022-10-18T13:53:57.467Z,100494.13
2022-10-18T13:56:36.440Z,100494.97
2022-10-18T13:59:17.286Z,100494.22
2022-10-18T14:02:04.298Z,100488.34
2022-10-18T14:04:41.125Z,100483.44
2022-10-18T14:07:10.053Z,100476.94
2022-10-18T14:09:45.562Z,100478.66
2022-10-18T14:12:23.174Z,100479.56
2022-10-18T14:14:52.374Z,100474.44
2022-10-18T14:17:24.373Z,100469.12
2022-10-18T14:19:54.096Z,100466.78
2022-10-18T14:22:24.727Z,100473.94
2022-10-18T14:24:54.474Z,100472.47
2022-10-18T14:27:32.435Z,100475.06
2022-10-18T14:30:10.613Z,100469.44
2022-10-18T14:32:39.252Z,100467.97
2022-10-18T14:35:32.910Z,100463.66
2022-10-18T14:38:02.330Z,100458.44
2022-10-18T14:40:36.037Z,100450.72
2022-10-18T14:43:11.045Z,100451.09
2022-10-18T14:45:43.239Z,100441.44
2022-10-18T14:48:16.106Z,100439.84
2022-10-18T14:50:46.202Z,100433.81
2022-10-18T14:53:21.981Z,100437.34
2022-10-18T14:56:02.639Z,100441.63
2022-10-18T14:58:33.255Z,100436.69
2022-10-18T15:01:02.758Z,100437.97
2022-10-18T15:03:32.659Z,100429.31
2022-10-18T15:06:05.457Z,100432.88
2022-10-18T15:08:37.668Z,100431.22
2022-10-18T15:11:09.340Z,100436.00
2022-10-18T15:13:43.828Z,100423.25
2022-10-18T15:16:13.273Z,100428.81
2022-10-18T15:18:42.966Z,100417.97
2022-10-18T15:21:21.386Z,100422.59
2022-10-18T15:23:50.954Z,100422.69
2022-10-18T15:26:24.801Z,100420.22
2022-10-18T15:29:00.437Z,100413.19
2022-10-18T15:31:41.795Z,100411.13
2022-10-18T15:34:17.832Z,100410.06
2022-10-18T15:36:46.465Z,100417.38
2022-10-18T15:39:17.522Z,100409.87
2022-10-18T15:41:49.147Z,100405.75
2022-10-18T15:44:23.389Z,100405.00
2022-10-18T15:46:53.378Z,100410.78
2022-10-18T15:49:46.539Z,100416.87
2022-10-18T15:52:36.686Z,100411.72
2022-10-18T15:55:27.841Z,100400.63
2022-10-18T15:58:03.232Z,100390.94
2022-10-18T16:00:38.785Z,100390.06
2022-10-18T16:03:23.591Z,100392.00
2022-10-18T16:06:02.079Z,100389.81
2022-10-18T16:11:08.241Z,100382.38
2022-10-18T16:13:44.355Z,100389.06
2022-10-18T16:16:16.183Z,100391.53
2022-10-18T16:18:47.429Z,100396.06
2022-10-18T16:21:22.740Z,100398.03
2022-10-18T16:23:54.396Z,100401.53
2022-10-18T16:26:29.584Z,100400.25
2022-10-18T16:28:59.316Z,100410.84
2022-10-18T16:31:31.623Z,100405.16
2022-10-18T16:34:00.215Z,100408.62
2022-10-18T16:36:31.294Z,100409.53
2022-10-18T16:39:00.972Z,100408.75
2022-10-18T16:41:31.976Z,100407.34
2022-10-18T16:44:00.821Z,100411.69
2022-10-18T16:46:33.029Z,100420.03
2022-10-18T16:49:01.811Z,100416.94
2022-10-18T16:51:36.801Z,100420.56
2022-10-18T16:54:05.523Z,100415.66
2022-10-18T16:56:35.104Z,100414.28
2022-10-18T16:59:03.920Z,100405.81
2022-10-18T17:01:42.502Z,100401.56
2022-10-18T17:04:18.595Z,100405.25
2022-10-18T17:06:47.600Z,100404.13
2022-10-18T17:09:16.563Z,100405.84
2022-10-18T17:11:49.620Z,100402.78
2022-10-18T17:14:20.068Z,100409.91
2022-10-18T17:16:53.806Z,100416.56
2022-10-18T17:19:28.125Z,100415.78
2022-10-18T17:22:01.564Z,100422.53
2022-10-18T17:24:33.547Z,100418.69
2022-10-18T17:27:10.154Z,100420.47
2022-10-18T17:29:39.075Z,100415.50
2022-10-18T17:32:11.429Z,100425.97
2022-10-18T17:37:18.540Z,100414.44
2022-10-18T17:39:52.311Z,100408.56
2022-10-18T17:42:22.417Z,100404.44
2022-10-18T17:44:57.090Z,100403.47
2022-10-18T17:47:31.131Z,100395.63
2022-10-18T17:50:01.418Z,100407.06
2022-10-18T17:52:32.651Z,100402.03
2022-10-18T17:55:04.568Z,100389.94
2022-10-18T17:57:35.273Z,100394.69
2022-10-18T18:00:08.732Z,100393.06
2022-10-18T18:02:43.152Z,100394.38
2022-10-18T18:05:13.046Z,100400.06
2022-10-18T18:07:42.353Z,100399.13
2022-10-18T18:10:11.618Z,100401.00
2022-10-18T18:12:45.912Z,100407.78
2022-10-18T18:15:14.706Z,100399.31
2022-10-18T18:17:58.400Z,100397.88
2022-10-18T18:20:30.749Z,100398.78
2022-10-18T18:23:07.637Z,100390.19
2022-10-18T18:25:38.069Z,100386.88
2022-10-18T18:28:16.569Z,100382.41
2022-10-18T18:30:52.581Z,100386.94
2022-10-18T18:33:22.997Z,100388.53
2022-10-18T18:35:58.216Z,100386.34
2022-10-18T18:38:27.483Z,100383.78
2022-10-18T18:41:04.213Z,100396.19
2022-10-18T18:43:38.972Z,100386.78
2022-10-18T18:46:08.155Z,100379.25
2022-10-18T18:48:42.101Z,100376.72
2022-10-18T18:51:12.859Z,100375.97
2022-10-18T18:53:50.563Z,100368.19
2022-10-18T18:58:55.986Z,100364.44
2022-10-18T19:01:26.742Z,100369.09
2022-10-18T19:04:08.204Z,100369.88
2022-10-18T19:06:38.590Z,100370.59
2022-10-18T19:09:12.586Z,100361.91
2022-10-18T19:11:41.660Z,100362.19
2022-10-18T19:14:16.253Z,100362.25
2022-10-18T19:16:51.499Z,100357.03
2022-10-18T19:19:22.679Z,100365.13
2022-10-18T19:21:54.351Z,100349.56
2022-10-18T19:24:24.386Z,100346.75
2022-10-18T19:26:54.018Z,100348.72
2022-10-18T19:29:24.221Z,100343.81
2022-10-18T19:31:55.956Z,100346.38
2022-10-18T19:34:26.997Z,100342.66
2022-10-18T19:36:56.770Z,100338.00
2022-10-18T19:39:26.501Z,100346.53
2022-10-18T19:42:02.871Z,100346.44
2022-10-18T19:44:40.777Z,100351.19
2022-10-18T19:47:12.048Z,100351.41
2022-10-18T19:49:45.171Z,100351.25
2022-10-18T19:52:14.111Z,100344.34
2022-10-18T19:54:45.740Z,100347.78
2022-10-18T19:57:14.584Z,100353.09
2022-10-18T19:59:47.784Z,100344.41
2022-10-18T20:02:16.498Z,100342.78
2022-10-18T20:04:46.687Z,100341.19
2022-10-18T20:07:15.292Z,100338.63
2022-10-18T20:09:47.888Z,100332.69
2022-10-18T20:12:17.198Z,100331.97
2022-10-18T20:14:52.126Z,100335.44
2022-10-18T20:17:21.621Z,100336.91
2022-10-18T20:19:52.498Z,100326.50
2022-10-18T20:22:21.975Z,100322.37
2022-10-18T20:24:52.708Z,100325.84
2022-10-18T20:27:21.693Z,100325.97
2022-10-18T20:29:51.123Z,100316.50
2022-10-18T20:32:21.028Z,100329.97
2022-10-18T20:34:50.521Z,100323.06
2022-10-18T20:37:24.909Z,100317.16
2022-10-18T20:40:03.663Z,100324.81
2022-10-18T20:42:32.614Z,100320.50
2022-10-18T20:47:38.255Z,100327.34
2022-10-18T20:50:07.434Z,100324.13
2022-10-18T20:52:41.009Z,100305.16
2022-10-18T20:55:09.926Z,100310.22
2022-10-18T20:57:42.159Z,100310.47
2022-10-18T21:00:13.383Z,100306.28
2022-10-18T21:02:44.787Z,100307.91
2022-10-18T21:05:13.742Z,100306.69
2022-10-18T21:07:50.963Z,100303.28
2022-10-18T21:10:20.337Z,100299.97
2022-10-18T21:12:54.946Z,100296.34
2022-10-18T21:15:32.903Z,100302.38
2022-10-18T21:18:01.484Z,100292.88
2022-10-18T21:20:31.019Z,100294.69
2022-10-18T21:23:00.974Z,100298.94
2022-10-18T21:25:29.769Z,100304.94
2022-10-18T21:27:59.675Z,100299.97
2022-10-18T21:30:29.606Z,100300.69
2022-10-18T21:32:59.461Z,100294.69
2022-10-18T21:35:29.570Z,100299.91
2022-10-18T21:38:05.812Z,100293.12
2022-10-18T21:40:36.425Z,100290.47
2022-10-18T21:43:05.337Z,100281.88
2022-10-18T21:45:37.823Z,100276.59
2022-10-18T21:48:06.896Z,100277.34
2022-10-18T21:50:36.765Z,100274.84
2022-10-18T21:53:07.567Z,100264.47
2022-10-18T21:55:43.357Z,100259.34
2022-10-18T21:58:11.680Z,100254.03
2022-10-18T22:00:41.977Z,100250.47
2022-10-18T22:03:11.244Z,100257.25
2022-10-18T22:05:40.923Z,100254.03
2022-10-18T22:08:11.171Z,100247.13
2022-10-18T22:10:43.645Z,100251.09
2022-10-18T22:13:12.204Z,100256.28
2022-10-18T22:15:45.259Z,100254.69
2022-10-18T22:18:13.851Z,100254.41
2022-10-18T22:20:42.722Z,100253.50
2022-10-18T22:23:17.326Z,100242.12
2022-10-18T22:25:46.150Z,100238.78
2022-10-18T22:28:16.108Z,100239.81
2022-10-18T22:30:45.935Z,100246.00
2022-10-18T22:33:20.097Z,100243.97
2022-10-18T22:35:52.788Z,100242.44
2022-10-18T22:38:22.991Z,100232.84
2022-10-18T22:40:51.885Z,100233.75
2022-10-18T22:43:20.533Z,100235.25
2022-10-18T22:45:55.801Z,100228.44
2022-10-18T22:48:25.079Z,100226.59
2022-10-18T22:50:54.175Z,100235.88
2022-10-18T22:53:24.648Z,100240.16
2022-10-18T22:55:56.332Z,100235.66
2022-10-18T23:01:00.717Z,100228.69
2022-10-18T23:03:29.836Z,100237.03
2022-10-18T23:05:59.590Z,100236.19
2022-10-18T23:08:29.747Z,100235.25
2022-10-18T23:11:04.555Z,100233.72
2022-10-18T23:13:35.028Z,100229.44
2022-10-18T23:16:08.975Z,100228.22
2022-10-18T23:18:44.732Z,100223.16
2022-10-18T23:21:14.727Z,100218.91
2022-10-18T23:23:47.202Z,100218.00
2022-10-18T23:26:16.995Z,100218.00
2022-10-18T23:28:47.314Z,100216.06
2022-10-18T23:31:19.167Z,100208.31
2022-10-18T23:33:49.264Z,100208.66
2022-10-18T23:36:17.948Z,100215.91
2022-10-18T23:38:50.878Z,100212.53
2022-10-18T23:41:19.793Z,100204.09
2022-10-18T23:43:53.909Z,100199.50
2022-10-18T23:46:22.764Z,100203.03
2022-10-18T23:48:54.281Z,100206.97
2022-10-18T23:51:23.174Z,100201.31
2022-10-18T23:54:00.342Z,100196.94
2022-10-18T23:56:29.434Z,100195.12
2022-10-18T23:58:58.840Z,100194.19
